Řízení letového provozu České republiky
Letiste: LKNA Aktualizace: 16.12.2017 22:08:04  UTC
 METAR LKNA 16.12. 22:00 ...
METAR LKNA 162200Z 27009KT CAVOK M01/M02 Q1012=
 TAF LKNA 16.12. 05:00 AAA
TAF AMD LKNA 160500Z 1607/1706 CNL=